Terminal Aerodrome Forecast
Issued by NWS

Home | Current Version | Previous Version | Text Only | Print | Product List | Glossary On
Versions: 1 2 3 4 5 6 7 8 9 10 11 12 13 14 15 16 17 18 19 20
000
FTUS42 KFFC 191300 AAA
TAFRYY
TAF AMD
KRYY 191356Z 1914/2012 06008KT P6SM BKN035
     FM191600 04012G20KT 6SM -RADZ OVC015
     FM192200 05010KT P6SM BKN020=

USA.gov is the U.S. government's official web portal to all federal, state and local government web resources and services.